Time;durP1;ratioP1;P1;durP2;ratioP2;P2;SDS_P1;SDS_P2;PMS_P1;PMS_P2;Temp;Humidity;BMP_temperature;BMP_pressure;BME280_temperature;BME280_humidity;BME280_pressure;Samples;Min_cycle;Max_cycle;Signal;HPM_P1;HPM_P2
2021/09/11 00:01:24;;;;;;;5.93;4.80;;;17.00;99.90;;;18.05;100.00;98229.94;5061377;28;20577;-82
2021/09/11 00:03:52;;;;;;;8.10;5.30;;;17.00;99.90;;;18.04;100.00;98223.88;5069461;28;20503;-82
2021/09/11 00:06:21;;;;;;;7.20;5.10;;;17.00;99.90;;;18.04;100.00;98221.22;5071615;28;20799;-82
2021/09/11 00:08:50;;;;;;;10.13;5.07;;;17.00;99.90;;;17.99;100.00;98217.63;5071671;28;20452;-82
2021/09/11 00:11:20;;;;;;;7.20;4.40;;;17.00;99.90;;;17.94;100.00;98223.63;5071099;28;20532;-82
2021/09/11 00:13:48;;;;;;;8.93;4.77;;;16.90;99.90;;;17.90;100.00;98226.94;5069300;28;20456;-82
2021/09/11 00:16:18;;;;;;;11.47;5.63;;;16.90;99.90;;;17.77;100.00;98227.19;5070750;28;20498;-82
2021/09/11 00:18:46;;;;;;;5.40;4.73;;;16.70;99.90;;;17.80;100.00;98230.19;5071613;28;20883;-82
2021/09/11 00:21:15;;;;;;;10.20;5.37;;;16.70;99.90;;;17.79;100.00;98217.97;5070481;28;20553;-82
2021/09/11 00:23:45;;;;;;;11.33;5.30;;;16.70;99.90;;;17.67;100.00;98219.78;5071397;28;20448;-82
2021/09/11 00:26:14;;;;;;;8.47;5.23;;;16.60;99.90;;;17.72;100.00;98217.28;5069105;28;20514;-82
2021/09/11 00:28:43;;;;;;;5.37;4.73;;;16.70;99.90;;;17.77;100.00;98224.53;5058198;28;20457;-82
2021/09/11 00:31:11;;;;;;;8.83;5.40;;;16.70;99.90;;;17.78;100.00;98226.94;5060083;28;20483;-82
2021/09/11 00:33:41;;;;;;;6.60;5.07;;;16.70;99.90;;;17.70;100.00;98214.03;5070311;28;20444;-82
2021/09/11 00:36:09;;;;;;;6.80;5.20;;;16.60;99.90;;;17.75;100.00;98226.59;5070543;28;21081;-82
2021/09/11 00:38:38;;;;;;;18.70;5.97;;;16.60;99.90;;;17.70;100.00;98221.19;5061063;28;20453;-82
2021/09/11 00:41:07;;;;;;;15.97;6.17;;;16.60;99.90;;;17.70;100.00;98218.53;5070803;28;20536;-82
2021/09/11 00:43:46;;;;;;;7.63;5.93;;;16.70;99.90;;;17.71;100.00;98220.13;5070128;28;20510;-82
2021/09/11 00:46:15;;;;;;;11.80;6.03;;;16.70;99.90;;;17.72;100.00;98219.09;5070797;28;20561;-82
2021/09/11 00:48:46;;;;;;;11.00;5.50;;;16.60;99.90;;;17.61;100.00;98215.41;5059506;28;20971;-82
2021/09/11 00:51:16;;;;;;;9.07;5.90;;;16.50;99.90;;;17.66;100.00;98212.91;5070526;28;20452;-82
2021/09/11 00:53:45;;;;;;;8.53;6.10;;;16.60;99.90;;;17.68;100.00;98217.94;5069460;28;20929;-82
2021/09/11 00:56:15;;;;;;;15.37;7.43;;;16.60;99.90;;;17.69;100.00;98212.44;5069568;28;20480;-82
2021/09/11 00:58:45;;;;;;;9.47;7.00;;;16.60;99.90;;;17.66;100.00;98214.72;5066166;28;20521;-82
2021/09/11 01:01:14;;;;;;;8.10;6.57;;;16.60;99.90;;;17.60;100.00;98214.59;5069287;28;20488;-81
2021/09/11 01:03:42;;;;;;;9.43;6.80;;;16.50;99.90;;;17.68;100.00;98215.31;5060487;28;20471;-82
2021/09/11 01:06:13;;;;;;;15.13;7.60;;;16.60;99.90;;;17.74;100.00;98219.66;5068332;28;20465;-82
2021/09/11 01:08:43;;;;;;;14.30;6.83;;;16.70;99.90;;;17.74;100.00;98219.66;5070731;28;20831;-82
2021/09/11 01:11:13;;;;;;;8.70;6.60;;;16.70;99.90;;;17.73;100.00;98213.59;5071943;28;20820;-82
2021/09/11 01:13:42;;;;;;;8.97;7.20;;;16.70;99.90;;;17.76;100.00;98220.28;5070318;28;20512;-82
2021/09/11 01:16:11;;;;;;;14.27;7.40;;;16.70;99.90;;;17.73;100.00;98215.44;5067130;28;20797;-82
2021/09/11 01:18:40;;;;;;;10.30;7.30;;;16.70;99.90;;;17.71;100.00;98218.28;5062594;28;20465;-82
2021/09/11 01:21:08;;;;;;;11.20;7.30;;;16.60;99.90;;;17.72;100.00;98216.47;5068231;28;20524;-82
2021/09/11 01:23:41;;;;;;;11.60;7.70;;;16.70;99.90;;;17.79;100.00;98217.16;5070315;28;20452;-82
2021/09/11 01:26:14;;;;;;;19.13;7.73;;;16.80;99.90;;;17.83;100.00;98223.63;5064646;28;20476;-83
2021/09/11 01:28:43;;;;;;;10.60;8.00;;;16.90;99.90;;;17.85;100.00;98218.88;5052768;28;20488;-82
2021/09/11 01:31:11;;;;;;;10.30;7.73;;;16.90;99.90;;;17.89;100.00;98220.03;5061777;28;20444;-83
2021/09/11 01:33:40;;;;;;;10.57;7.00;;;16.90;99.90;;;17.92;100.00;98216.94;5066954;28;20452;-82
2021/09/11 01:36:09;;;;;;;13.80;7.30;;;17.00;99.90;;;17.93;100.00;98215.91;5070711;28;20457;-82
2021/09/11 01:38:37;;;;;;;8.83;7.27;;;17.00;99.90;;;17.94;100.00;98214.88;5065742;28;20445;-82
2021/09/11 01:41:07;;;;;;;9.00;6.70;;;17.00;99.90;;;17.90;100.00;98208.44;5067397;28;20997;-82
2021/09/11 01:43:36;;;;;;;12.53;7.93;;;16.90;99.90;;;17.90;100.00;98214.53;5060848;28;20448;-82
2021/09/11 01:46:07;;;;;;;12.37;7.47;;;16.90;99.90;;;17.92;100.00;98212.44;5070530;28;20566;-82
2021/09/11 01:48:35;;;;;;;11.67;7.57;;;17.00;99.90;;;17.95;100.00;98216.47;5063923;28;20472;-82
2021/09/11 01:51:04;;;;;;;14.50;7.80;;;17.00;99.90;;;17.97;100.00;98214.41;5070614;28;20491;-82
2021/09/11 01:53:32;;;;;;;6.80;5.77;;;17.10;99.90;;;17.96;100.00;98213.59;5065928;28;20453;-82
2021/09/11 01:56:01;;;;;;;8.63;6.10;;;17.10;99.90;;;17.98;100.00;98218.66;5062213;28;20480;-82
2021/09/11 01:58:30;;;;;;;7.73;5.90;;;17.10;99.90;;;17.97;100.00;98211.78;5065029;28;20487;-82
2021/09/11 02:00:59;;;;;;;13.83;5.97;;;17.10;99.90;;;17.98;100.00;98216.00;5070267;28;20497;-82
2021/09/11 02:03:28;;;;;;;7.03;5.20;;;17.20;99.90;;;17.96;100.00;98228.69;5059242;28;20823;-82
2021/09/11 02:05:56;;;;;;;9.10;5.00;;;17.20;99.90;;;18.00;100.00;98211.31;5057575;28;20461;-82
2021/09/11 02:08:25;;;;;;;7.23;5.77;;;17.20;99.90;;;17.99;100.00;98223.72;5062908;28;20465;-82
2021/09/11 02:10:53;;;;;;;9.53;5.80;;;17.20;99.90;;;18.00;100.00;98219.25;5066231;28;20452;-82
2021/09/11 02:13:22;;;;;;;16.17;6.27;;;17.20;99.90;;;18.01;100.00;98224.28;5063505;28;20473;-82
2021/09/11 02:15:54;;;;;;;6.93;5.80;;;17.10;99.90;;;18.01;100.00;98210.28;5064734;28;20453;-82
2021/09/11 02:18:22;;;;;;;5.87;5.33;;;17.10;99.90;;;18.01;100.00;98216.34;5068794;28;20481;-82
2021/09/11 02:20:51;;;;;;;10.67;6.73;;;17.10;99.90;;;18.04;100.00;98210.63;5069491;28;20501;-82
2021/09/11 02:23:20;;;;;;;10.17;6.20;;;17.10;99.90;;;18.07;100.00;98209.34;5069709;28;20588;-83
2021/09/11 02:25:50;;;;;;;14.33;6.80;;;17.10;99.90;;;18.10;100.00;98214.19;5069415;28;20459;-82
2021/09/11 02:28:18;;;;;;;12.13;8.13;;;17.20;99.90;;;18.11;100.00;98221.09;5069514;28;20509;-82
2021/09/11 02:30:47;;;;;;;14.00;8.43;;;17.10;99.90;;;18.10;100.00;98222.94;5067456;28;21035;-82
2021/09/11 02:33:17;;;;;;;13.63;7.73;;;17.20;99.90;;;18.12;100.00;98222.69;5073993;28;20443;-83
2021/09/11 02:35:45;;;;;;;17.50;9.17;;;17.20;99.90;;;18.14;100.00;98225.13;5072069;28;20440;-82
2021/09/11 02:38:14;;;;;;;16.90;9.80;;;17.20;99.90;;;18.15;100.00;98232.84;5081229;28;20452;-82
2021/09/11 02:40:42;;;;;;;12.70;9.20;;;17.20;99.90;;;18.19;100.00;98228.66;5072101;28;20452;-82
2021/09/11 02:43:11;;;;;;;17.13;10.53;;;17.20;99.90;;;18.20;100.00;98225.00;5072817;28;20491;-82
2021/09/11 02:45:39;;;;;;;12.80;11.10;;;17.30;99.90;;;18.22;100.00;98222.13;5071222;28;20518;-82
2021/09/11 02:48:08;;;;;;;17.30;12.90;;;17.30;99.90;;;18.25;100.00;98217.19;5071210;28;20456;-82
2021/09/11 02:50:37;;;;;;;15.60;13.03;;;17.40;99.90;;;18.29;100.00;98223.59;5072116;28;20842;-82
2021/09/11 02:53:06;;;;;;;20.20;13.17;;;17.40;99.90;;;18.33;100.00;98229.22;5070276;28;20811;-82
2021/09/11 02:55:34;;;;;;;23.83;16.10;;;17.40;99.90;;;18.34;100.00;98225.56;5072885;28;20945;-82
2021/09/11 02:58:03;;;;;;;20.23;15.00;;;17.40;99.90;;;18.37;100.00;98228.53;5067117;28;20456;-82
2021/09/11 03:00:32;;;;;;;21.10;14.13;;;17.50;99.90;;;18.39;100.00;98231.78;5072837;28;20448;-82
2021/09/11 03:03:01;;;;;;;20.20;15.80;;;17.50;99.90;;;18.40;100.00;98224.63;5065553;28;20495;-82
2021/09/11 03:05:30;;;;;;;19.67;14.50;;;17.50;99.90;;;18.40;100.00;98236.03;5065324;28;20456;-82
2021/09/11 03:08:00;;;;;;;19.50;13.77;;;17.50;99.90;;;18.42;100.00;98228.66;5073056;28;20452;-82
2021/09/11 03:10:28;;;;;;;19.20;14.43;;;17.50;99.90;;;18.43;100.00;98219.66;5072986;28;20457;-82
2021/09/11 03:12:57;;;;;;;28.00;18.57;;;17.60;99.90;;;18.44;100.00;98221.28;5070297;28;20444;-82
2021/09/11 03:15:25;;;;;;;24.20;16.10;;;17.60;99.90;;;18.45;100.00;98228.19;5071811;28;20471;-82
2021/09/11 03:17:53;;;;;;;32.87;20.90;;;17.60;99.90;;;18.46;100.00;98216.59;5060939;28;20482;-82
2021/09/11 03:20:22;;;;;;;37.10;21.20;;;17.60;99.90;;;18.45;100.00;98214.97;5068559;28;20441;-82
2021/09/11 03:22:51;;;;;;;34.23;22.07;;;17.60;99.90;;;18.49;100.00;98220.59;5072115;28;20495;-82
2021/09/11 03:25:21;;;;;;;33.00;20.47;;;17.60;99.90;;;18.47;100.00;98214.72;5072633;28;20488;-82
2021/09/11 03:27:49;;;;;;;33.77;21.77;;;17.60;99.90;;;18.47;100.00;98214.72;5063937;28;20948;-82
2021/09/11 03:30:18;;;;;;;35.93;21.40;;;17.60;99.90;;;18.48;100.00;98216.34;5060974;28;20483;-82
2021/09/11 03:32:46;;;;;;;29.47;19.63;;;17.60;99.90;;;18.47;100.00;98226.13;5062341;28;20491;-82
2021/09/11 03:35:16;;;;;;;31.67;19.80;;;17.60;99.90;;;18.48;100.00;98221.63;5071530;28;20954;-82
2021/09/11 03:37:44;;;;;;;30.03;19.90;;;17.60;99.90;;;18.49;100.00;98215.31;5056484;28;20473;-82
2021/09/11 03:40:13;;;;;;;31.90;21.10;;;17.60;99.90;;;18.51;100.00;98226.50;5058620;28;20488;-82
2021/09/11 03:42:43;;;;;;;74.37;44.50;;;17.60;99.90;;;18.52;100.00;98228.91;5064535;28;21016;-83
2021/09/11 03:45:12;;;;;;;35.70;23.23;;;17.60;99.90;;;18.52;100.00;98223.63;5060662;28;20493;-82
2021/09/11 03:47:41;;;;;;;31.83;21.90;;;17.70;99.90;;;18.53;100.00;98225.19;5055719;28;20468;-81
2021/09/11 03:50:10;;;;;;;27.73;19.07;;;17.70;99.90;;;18.51;100.00;98224.66;5053454;28;20522;-82
2021/09/11 03:52:39;;;;;;;34.80;20.10;;;17.70;99.90;;;18.53;100.00;98225.19;5063360;28;20444;-82
2021/09/11 03:55:09;;;;;;;27.03;18.80;;;17.80;99.90;;;18.54;100.00;98224.19;5057745;28;20590;-81
2021/09/11 03:57:37;;;;;;;30.77;19.50;;;17.70;99.90;;;18.55;100.00;98222.34;5058741;28;20487;-82
2021/09/11 04:00:09;;;;;;;27.20;19.43;;;17.70;99.90;;;18.56;100.00;98218.66;5056797;28;20934;-81
2021/09/11 04:02:39;;;;;;;28.70;18.07;;;17.80;99.90;;;18.56;100.00;98214.16;5069114;28;20479;-82
2021/09/11 04:05:09;;;;;;;29.50;18.50;;;17.70;99.90;;;18.56;100.00;98216.00;5054064;28;20461;-82
2021/09/11 04:07:38;;;;;;;29.53;20.53;;;17.70;99.90;;;18.55;100.00;98211.75;5054885;28;20469;-82
2021/09/11 04:10:08;;;;;;;26.57;18.03;;;17.60;99.90;;;18.51;100.00;98216.69;5056233;28;20467;-81
2021/09/11 04:12:36;;;;;;;26.97;17.90;;;17.60;99.90;;;18.49;100.00;98218.75;5069187;28;20482;-82
2021/09/11 04:15:08;;;;;;;26.37;18.47;;;17.60;99.90;;;18.50;100.00;98230.16;5063286;28;20445;-82
2021/09/11 04:17:37;;;;;;;25.40;18.10;;;17.60;99.90;;;18.51;100.00;98239.72;5056811;28;20448;-81
2021/09/11 04:20:07;;;;;;;25.67;17.90;;;17.60;99.90;;;18.49;100.00;98229.34;5061327;28;20490;-82
2021/09/11 04:22:35;;;;;;;25.60;17.43;;;17.60;99.90;;;18.51;100.00;98226.50;5054508;28;20977;-82
2021/09/11 04:25:05;;;;;;;24.50;16.93;;;17.60;99.90;;;18.51;100.00;98237.88;5053083;28;20508;-82
2021/09/11 04:27:34;;;;;;;22.20;16.33;;;17.60;99.90;;;18.52;100.00;98239.50;5056021;28;21233;-81
2021/09/11 04:30:03;;;;;;;39.90;25.50;;;17.60;99.90;;;18.52;100.00;98234.22;5053296;28;20453;-82
2021/09/11 04:32:32;;;;;;;26.60;17.60;;;17.60;99.90;;;18.53;100.00;98224.44;5058247;28;20517;-82
2021/09/11 04:35:01;;;;;;;19.20;13.83;;;17.60;99.90;;;18.51;100.00;98224.66;5051694;28;20856;-82
2021/09/11 04:37:30;;;;;;;19.70;14.10;;;17.60;99.90;;;18.47;100.00;98226.13;5061803;28;21003;-82
2021/09/11 04:39:59;;;;;;;21.47;13.27;;;17.50;99.90;;;18.45;100.00;98232.69;5052296;28;20938;-82
2021/09/11 04:42:27;;;;;;;19.47;14.73;;;17.50;99.90;;;18.47;100.00;98226.13;5051553;28;20449;-82
2021/09/11 04:44:56;;;;;;;17.60;12.70;;;17.50;99.90;;;18.43;100.00;98227.63;5058107;28;20534;-82
2021/09/11 04:47:24;;;;;;;18.00;14.70;;;17.50;99.90;;;18.44;100.00;98216.00;5054127;28;20453;-83
2021/09/11 04:49:54;;;;;;;19.00;13.30;;;17.50;99.90;;;18.42;100.00;98228.66;5056649;28;20449;-82
2021/09/11 04:52:22;;;;;;;22.13;14.67;;;17.40;99.90;;;18.40;100.00;98230.72;5054759;28;20475;-82
2021/09/11 04:54:51;;;;;;;16.40;13.33;;;17.50;99.90;;;18.35;100.00;98235.94;5055266;28;20456;-82
2021/09/11 04:57:19;;;;;;;17.40;13.57;;;17.30;99.90;;;18.30;100.00;98243.75;5064733;28;20934;-83
2021/09/11 04:59:48;;;;;;;26.07;13.60;;;17.30;99.90;;;18.22;100.00;98236.19;5057142;28;20444;-82
2021/09/11 05:02:16;;;;;;;17.00;12.53;;;17.30;99.90;;;18.23;100.00;98235.13;5058091;28;20842;-82
2021/09/11 05:04:45;;;;;;;20.07;12.73;;;17.30;99.90;;;18.18;100.00;98231.56;5070830;28;20497;-83
2021/09/11 05:07:19;;;;;;;22.40;11.87;;;17.20;99.90;;;18.16;100.00;98244.22;5070856;28;20501;-82
2021/09/11 05:09:48;;;;;;;19.00;12.40;;;17.20;99.90;;;18.18;100.00;98244.81;5070735;28;20499;-82
2021/09/11 05:12:16;;;;;;;23.27;13.43;;;17.20;99.90;;;18.21;100.00;98252.28;5070102;28;21033;-82
2021/09/11 05:14:45;;;;;;;21.33;12.23;;;17.20;99.90;;;18.20;100.00;98255.94;5072109;28;20480;-82
2021/09/11 05:17:13;;;;;;;27.73;12.50;;;17.30;99.90;;;18.21;100.00;98254.94;5068296;28;20478;-82
2021/09/11 05:19:42;;;;;;;16.93;12.43;;;17.30;99.90;;;18.22;100.00;98259.19;5063826;28;20449;-82
2021/09/11 05:22:10;;;;;;;14.80;11.63;;;17.30;99.90;;;18.22;100.00;98257.34;5063462;28;20502;-82
2021/09/11 05:24:42;;;;;;;14.83;11.50;;;17.30;99.90;;;18.22;100.00;98262.66;5069619;28;20585;-82
2021/09/11 05:27:10;;;;;;;19.00;11.97;;;17.30;99.90;;;18.21;100.00;98255.72;5069109;28;20517;-82
2021/09/11 05:29:38;;;;;;;12.53;10.40;;;17.30;99.90;;;18.22;100.00;98260.00;5063094;28;20445;-82
2021/09/11 05:32:08;;;;;;;19.93;11.00;;;17.30;99.90;;;18.22;100.00;98262.66;5066426;28;20453;-82
2021/09/11 05:34:36;;;;;;;14.90;10.47;;;17.30;99.90;;;18.22;100.00;98260.00;5069517;28;20504;-82
2021/09/11 05:37:05;;;;;;;16.00;11.30;;;17.30;99.90;;;18.24;100.00;98260.56;5063250;28;20449;-82
2021/09/11 05:39:34;;;;;;;15.30;10.73;;;17.30;99.90;;;18.23;100.00;98264.25;5060565;28;20519;-82
2021/09/11 05:42:04;;;;;;;15.20;10.63;;;17.30;99.90;;;18.24;100.00;98267.69;5068363;28;20804;-82
2021/09/11 05:44:33;;;;;;;17.50;11.00;;;17.30;99.90;;;18.26;100.00;98277.00;5069322;28;20606;-82
2021/09/11 05:47:01;;;;;;;18.23;10.10;;;17.30;99.90;;;18.26;100.00;98271.72;5064858;28;20461;-82
2021/09/11 05:49:30;;;;;;;13.57;9.77;;;17.40;99.90;;;18.27;100.00;98277.81;5063766;28;20448;-82
2021/09/11 05:51:58;;;;;;;22.63;10.43;;;17.40;99.90;;;18.26;100.00;98277.00;5067987;28;20452;-82
2021/09/11 05:54:27;;;;;;;12.80;10.00;;;17.40;99.90;;;18.29;100.00;98271.25;5068464;28;20493;-82
2021/09/11 05:56:55;;;;;;;16.43;10.37;;;17.40;99.90;;;18.33;100.00;98272.41;5066653;28;20491;-82
2021/09/11 05:59:25;;;;;;;14.40;10.60;;;17.40;99.90;;;18.33;100.00;98280.34;5060505;28;20484;-82
2021/09/11 06:01:54;;;;;;;11.17;9.80;;;17.50;99.90;;;18.37;100.00;98281.50;5065016;28;20509;-82
2021/09/11 06:04:23;;;;;;;14.23;10.57;;;17.50;99.90;;;18.37;100.00;98292.09;5056845;28;20517;-83
2021/09/11 06:06:54;;;;;;;13.20;10.07;;;17.50;99.90;;;18.42;100.00;98281.63;5066919;28;20464;-82
2021/09/11 06:09:22;;;;;;;14.10;11.07;;;17.60;99.90;;;18.45;100.00;98291.75;5071204;28;20463;-82
2021/09/11 06:11:51;;;;;;;14.07;11.17;;;17.60;99.90;;;18.48;100.00;98295.78;5068924;28;20455;-82
2021/09/11 06:14:20;;;;;;;18.47;10.37;;;17.60;99.90;;;18.51;100.00;98284.75;5074840;28;20991;-82
2021/09/11 06:16:49;;;;;;;13.33;10.03;;;17.60;99.90;;;18.51;100.00;98290.06;5072673;28;20525;-82
2021/09/11 06:19:18;;;;;;;18.07;10.43;;;17.60;99.90;;;18.53;100.00;98294.06;5073184;28;20475;-82
2021/09/11 06:21:46;;;;;;;13.50;11.17;;;17.60;99.90;;;18.56;100.00;98292.81;5073887;28;20452;-82
2021/09/11 06:24:15;;;;;;;17.13;10.10;;;17.60;99.90;;;18.59;100.00;98287.06;5073858;28;20504;-82
2021/09/11 06:26:43;;;;;;;12.53;10.17;;;17.70;99.90;;;18.62;100.00;98289.25;5068695;28;20445;-83
2021/09/11 06:29:12;;;;;;;16.47;11.60;;;17.70;99.90;;;18.65;100.00;98293.25;5066668;28;20501;-82
2021/09/11 06:31:40;;;;;;;18.07;11.43;;;17.80;99.90;;;18.65;100.00;98283.47;5067805;28;20620;-82
2021/09/11 06:34:10;;;;;;;15.13;10.93;;;17.80;99.90;;;18.66;100.00;98289.59;5069380;28;20479;-82
2021/09/11 06:36:39;;;;;;;12.67;10.40;;;17.70;99.90;;;18.63;100.00;98293.50;5076458;28;20452;-82
2021/09/11 06:39:07;;;;;;;16.73;11.07;;;17.70;99.90;;;18.64;100.00;98295.09;5072779;28;20480;-82
2021/09/11 06:41:36;;;;;;;14.37;11.17;;;17.80;99.90;;;18.66;100.00;98292.22;5072885;28;20494;-82
2021/09/11 06:44:05;;;;;;;12.00;10.40;;;17.80;99.90;;;18.64;100.00;98295.09;5069673;28;20561;-82
2021/09/11 06:46:34;;;;;;;16.97;10.70;;;17.80;99.90;;;18.66;100.00;98292.22;5069006;28;20456;-82
2021/09/11 06:49:03;;;;;;;15.13;11.37;;;17.80;99.90;;;18.67;100.00;98294.66;5063424;28;20528;-82
2021/09/11 06:51:33;;;;;;;18.77;11.87;;;17.80;99.90;;;18.68;100.00;98296.25;5069137;28;20951;-82
2021/09/11 06:54:02;;;;;;;17.93;10.80;;;17.80;99.90;;;18.69;100.00;98297.88;5072959;28;20448;-82
2021/09/11 06:56:30;;;;;;;18.30;12.00;;;17.80;99.90;;;18.72;100.00;98293.94;5069908;28;20479;-82
2021/09/11 06:58:59;;;;;;;14.80;10.73;;;17.90;99.90;;;18.76;100.00;98303.84;5070513;28;20813;-82
2021/09/11 07:01:27;;;;;;;27.33;11.70;;;18.00;99.90;;;18.76;100.00;98303.84;5065603;28;20453;-83
2021/09/11 07:03:56;;;;;;;14.47;11.93;;;17.90;99.90;;;18.81;100.00;98303.94;5062911;28;20484;-82
2021/09/11 07:06:25;;;;;;;16.60;11.50;;;18.00;99.90;;;18.82;100.00;98297.63;5072491;28;20823;-82
2021/09/11 07:08:54;;;;;;;15.67;12.47;;;18.00;99.90;;;18.84;100.00;98294.75;5072456;28;20452;-82
2021/09/11 07:11:23;;;;;;;17.00;13.03;;;18.10;99.90;;;18.84;100.00;98298.22;5070718;28;20495;-82
2021/09/11 07:13:51;;;;;;;16.93;13.30;;;18.00;99.90;;;18.87;100.00;98296.94;5072777;28;20448;-83
2021/09/11 07:16:20;;;;;;;24.13;15.37;;;18.00;99.90;;;18.90;100.00;98299.09;5060243;28;20486;-82
2021/09/11 07:18:48;;;;;;;21.17;15.30;;;18.20;99.90;;;18.84;100.00;98294.75;5062621;28;20464;-82
2021/09/11 07:21:17;;;;;;;25.07;14.50;;;18.20;99.90;;;18.86;100.00;98297.97;5072085;28;20621;-82
2021/09/11 07:23:45;;;;;;;21.73;15.00;;;18.10;99.90;;;18.87;100.00;98295.09;5072401;28;20495;-81
2021/09/11 07:26:18;;;;;;;25.10;16.77;;;18.10;99.90;;;18.88;100.00;98286.06;5061987;28;20504;-82
2021/09/11 07:28:47;;;;;;;20.87;14.70;;;18.10;99.90;;;18.89;100.00;98292.19;5071697;28;20476;-82
2021/09/11 07:31:18;;;;;;;25.80;18.00;;;18.10;99.90;;;18.85;100.00;98294.50;5063819;28;20497;-82
2021/09/11 07:33:46;;;;;;;41.03;16.60;;;18.00;99.90;;;18.76;100.00;98287.97;5071355;28;20967;-82
2021/09/11 07:36:15;;;;;;;29.10;17.60;;;17.80;99.90;;;18.80;100.00;98296.25;5069597;28;20517;-82
2021/09/11 07:38:45;;;;;;;28.67;18.40;;;17.90;99.90;;;18.75;100.00;98298.78;5068870;28;20874;-82
2021/09/11 07:41:15;;;;;;;31.00;17.60;;;17.80;99.90;;;18.73;100.00;98298.22;5071868;28;20460;-82
2021/09/11 07:43:43;;;;;;;31.47;17.30;;;17.70;99.90;;;18.74;100.00;98305.13;5071720;28;20448;-82
2021/09/11 07:46:12;;;;;;;31.47;18.17;;;17.80;99.90;;;18.82;100.00;98302.91;5071878;28;20500;-82
2021/09/11 07:48:41;;;;;;;33.00;18.70;;;18.00;99.90;;;18.79;100.00;98302.56;5058261;28;20451;-82
2021/09/11 07:51:09;;;;;;;29.50;18.60;;;17.90;99.90;;;18.86;100.00;98304.06;5071039;28;20449;-82
2021/09/11 07:53:40;;;;;;;33.10;18.93;;;18.00;99.90;;;18.85;100.00;98301.63;5063100;28;20940;-82
2021/09/11 07:56:11;;;;;;;28.17;17.27;;;17.90;99.90;;;18.90;100.00;98307.88;5070636;28;20472;-82
2021/09/11 07:58:40;;;;;;;28.93;16.70;;;18.00;99.90;;;18.88;100.00;98306.50;5064412;28;20464;-82
2021/09/11 08:01:09;;;;;;;32.00;17.40;;;18.00;99.90;;;18.81;100.00;98317.19;5067156;28;20456;-82
2021/09/11 08:03:38;;;;;;;30.10;16.23;;;17.90;99.90;;;18.85;100.00;98317.53;5063147;28;20457;-82
2021/09/11 08:06:08;;;;;;;27.30;16.90;;;17.90;99.90;;;18.80;100.00;98326.22;5060380;28;20496;-82
2021/09/11 08:08:38;;;;;;;27.50;18.70;;;17.90;99.90;;;18.83;100.00;98330.22;5062802;28;20467;-82
2021/09/11 08:11:07;;;;;;;34.17;19.17;;;17.90;99.90;;;18.81;100.00;98329.66;5070018;28;20936;-82
2021/09/11 08:13:36;;;;;;;36.00;19.37;;;17.90;99.90;;;18.86;100.00;98340.34;5071629;28;20452;-82
2021/09/11 08:16:06;;;;;;;39.20;17.83;;;18.00;99.90;;;18.89;100.00;98345.19;5068641;28;20456;-82
2021/09/11 08:18:35;;;;;;;38.33;18.47;;;18.00;99.90;;;18.85;100.00;98350.16;5071401;28;20506;-82
2021/09/11 08:21:04;;;;;;;29.90;18.27;;;17.90;99.90;;;18.90;100.00;98352.13;5070829;28;20464;-81
2021/09/11 08:23:32;;;;;;;24.10;15.63;;;17.90;99.90;;;18.93;100.00;98351.66;5069640;28;20475;-82
2021/09/11 08:26:02;;;;;;;29.57;14.47;;;18.00;99.90;;;18.89;100.00;98364.56;5058790;28;21026;-82
2021/09/11 08:28:31;;;;;;;19.03;11.77;;;18.00;99.90;;;18.88;100.00;98360.28;5065539;28;20505;-83
2021/09/11 08:30:59;;;;;;;14.93;9.80;;;18.00;99.90;;;18.91;100.00;98361.69;5059351;28;20509;-82
2021/09/11 08:33:29;;;;;;;12.97;8.97;;;18.10;99.90;;;18.87;100.00;98363.19;5071732;28;20460;-82
2021/09/11 08:36:01;;;;;;;18.57;7.50;;;18.00;99.90;;;18.80;100.00;98362.50;5070020;28;20506;-82
2021/09/11 08:38:34;;;;;;;8.53;6.70;;;18.00;99.90;;;18.80;100.00;98362.50;5071154;28;20904;-82
2021/09/11 08:41:06;;;;;;;9.50;6.90;;;18.00;99.90;;;18.86;100.00;98369.50;5062420;28;20444;-82
2021/09/11 08:43:47;;;;;;;11.10;7.20;;;18.00;99.90;;;18.85;100.00;98370.53;5070820;28;20448;-82
2021/09/11 08:46:27;;;;;;;7.37;5.73;;;17.90;99.90;;;18.87;100.00;98371.94;5069606;28;20557;-82
2021/09/11 08:48:58;;;;;;;10.97;5.90;;;18.00;99.90;;;18.84;100.00;98368.94;5070194;28;20448;-82
2021/09/11 08:51:27;;;;;;;4.67;4.10;;;18.00;99.90;;;18.80;100.00;98373.09;5069518;28;20484;-82
2021/09/11 08:53:55;;;;;;;12.03;3.80;;;18.00;99.90;;;18.81;100.00;98372.06;5070367;28;20937;-82
2021/09/11 08:56:24;;;;;;;4.03;2.80;;;18.00;99.90;;;18.85;100.00;98370.53;5069646;28;20844;-82
2021/09/11 08:59:08;;;;;;;3.23;2.70;;;18.10;99.90;;;18.89;100.00;98372.50;5062345;28;20831;-82
2021/09/11 09:01:37;;;;;;;3.57;2.80;;;18.10;99.90;;;18.90;100.00;98378.63;5064607;28;20493;-82
2021/09/11 09:04:09;;;;;;;3.90;2.87;;;18.10;99.90;;;18.88;100.00;98375.41;5056103;28;20450;-82
2021/09/11 09:06:40;;;;;;;4.30;2.90;;;18.10;99.90;;;18.87;100.00;98384.38;5066033;28;20493;-83
2021/09/11 09:09:14;;;;;;;3.57;2.80;;;18.00;99.90;;;18.93;100.00;98378.16;5068698;28;20755;-83
2021/09/11 09:11:45;;;;;;;5.00;2.80;;;18.10;99.90;;;18.97;100.00;98384.59;5070788;28;20456;-83
2021/09/11 09:14:17;;;;;;;4.53;3.33;;;18.10;99.90;;;18.98;100.00;98388.88;5070426;28;20502;-82
2021/09/11 09:16:50;;;;;;;3.10;2.63;;;18.10;99.90;;;19.05;100.00;98387.69;5059505;28;20497;-82
2021/09/11 09:19:22;;;;;;;7.00;3.10;;;18.30;99.90;;;19.07;100.00;98388.28;5070320;28;20451;-82
2021/09/11 09:21:54;;;;;;;3.87;2.87;;;18.30;99.90;;;19.04;100.00;98391.41;5069912;28;20514;-82
2021/09/11 09:24:30;;;;;;;4.10;3.00;;;18.20;99.90;;;19.13;100.00;98377.78;5069937;28;21033;-81
2021/09/11 09:27:02;;;;;;;4.30;3.03;;;18.30;99.90;;;19.21;100.00;98375.56;5063685;28;20577;-82
2021/09/11 09:29:31;;;;;;;5.67;2.50;;;18.30;99.90;;;19.21;100.00;98370.28;5061491;28;20877;-82
2021/09/11 09:32:01;;;;;;;3.87;2.57;;;18.40;99.90;;;19.23;100.00;98372.69;5066602;28;20445;-82
2021/09/11 09:34:36;;;;;;;5.50;3.40;;;18.40;99.90;;;19.21;100.00;98370.28;5056153;28;20511;-82
2021/09/11 09:37:08;;;;;;;4.37;2.50;;;18.40;99.90;;;19.07;100.00;98375.03;5068353;28;20482;-82
2021/09/11 09:39:41;;;;;;;3.53;2.80;;;18.30;99.90;;;19.09;100.00;98370.28;5061098;28;20481;-83
2021/09/11 09:42:15;;;;;;;3.60;2.73;;;18.20;99.90;;;19.15;100.00;98368.56;5072931;28;20455;-82
2021/09/11 09:44:46;;;;;;;4.43;3.00;;;18.30;99.90;;;19.22;100.00;98363.94;5071805;28;20530;-83
2021/09/11 09:47:17;;;;;;;4.37;2.50;;;18.30;99.90;;;19.32;100.00;98374.75;5073212;28;20499;-82
2021/09/11 09:50:07;;;;;;;9.17;2.70;;;18.50;99.90;;;19.36;100.00;98370.59;5073500;28;20444;-82
2021/09/11 09:52:36;;;;;;;5.67;3.20;;;18.50;99.90;;;19.38;100.00;98376.44;5068074;28;20509;-82
2021/09/11 09:55:08;;;;;;;13.27;3.10;;;18.50;99.90;;;19.43;100.00;98387.22;5073219;28;20571;-82
2021/09/11 09:57:38;;;;;;;7.90;3.20;;;18.70;99.90;;;19.47;100.00;98379.59;5063730;28;20875;-83
2021/09/11 10:00:08;;;;;;;3.60;2.77;;;18.70;99.90;;;19.53;100.00;98386.59;5069997;28;20444;-82
2021/09/11 10:02:39;;;;;;;6.60;2.93;;;18.80;99.90;;;19.60;100.00;98392.56;5063128;28;20966;-82
2021/09/11 10:05:14;;;;;;;3.30;2.33;;;18.80;99.90;;;19.59;100.00;98389.13;5058106;28;20453;-82
2021/09/11 10:08:00;;;;;;;2.67;2.47;;;18.80;99.90;;;19.61;100.00;98391.50;5059491;28;20503;-82
2021/09/11 10:10:32;;;;;;;2.63;2.43;;;18.90;99.90;;;19.63;100.00;98378.84;5067051;28;20444;-82
2021/09/11 10:13:16;;;;;;;8.73;2.40;;;18.90;99.90;;;19.69;100.00;98377.06;5069046;28;21012;-81
2021/09/11 10:15:54;;;;;;;4.73;2.30;;;18.90;99.90;;;19.73;100.00;98370.25;5070832;28;20445;-82